Time;durP1;ratioP1;P1;durP2;ratioP2;P2;SDS_P1;SDS_P2;PMS_P1;PMS_P2;Temp;Humidity;BMP_temperature;BMP_pressure;BME280_temperature;BME280_humidity;BME280_pressure;Samples;Min_cycle;Max_cycle;Signal;HPM_P1;HPM_P2
2022/09/24 00:01:14;;;;;;;8.43;7.45;;;;;;;;;;5082690;28;20203;-69
2022/09/24 00:03:44;;;;;;;8.90;7.00;;;;;;;;;;5082590;28;20202;-69
2022/09/24 00:06:13;;;;;;;7.18;6.47;;;;;;;;;;5082574;28;20238;-69
2022/09/24 00:08:39;;;;;;;9.02;6.72;;;;;;;;;;5082669;28;20196;-69
2022/09/24 00:11:06;;;;;;;8.23;6.72;;;;;;;;;;5082420;28;20271;-69
2022/09/24 00:13:34;;;;;;;7.80;7.05;;;;;;;;;;5082450;28;20566;-69
2022/09/24 00:16:02;;;;;;;11.13;6.45;;;;;;;;;;5082481;28;20193;-69
2022/09/24 00:18:28;;;;;;;8.02;6.03;;;;;;;;;;5082588;28;20267;-69
2022/09/24 00:20:54;;;;;;;6.20;5.60;;;;;;;;;;5082449;28;20196;-69
2022/09/24 00:23:22;;;;;;;6.78;5.70;;;;;;;;;;5082169;28;20202;-69
2022/09/24 00:28:32;;;;;;;7.15;5.45;;;;;;;;;;5082347;28;20546;-69
2022/09/24 00:30:59;;;;;;;6.20;5.07;;;;;;;;;;5082068;28;20204;-69
2022/09/24 00:33:27;;;;;;;6.75;5.57;;;;;;;;;;5082060;28;20197;-69
2022/09/24 00:35:53;;;;;;;6.18;5.63;;;;;;;;;;5082144;28;20386;-67
2022/09/24 00:38:19;;;;;;;5.50;5.10;;;;;;;;;;5082205;28;20433;-67
2022/09/24 00:40:47;;;;;;;6.55;5.82;;;;;;;;;;5082221;28;20196;-67
2022/09/24 00:43:24;;;;;;;6.30;5.60;;;;;;;;;;5082100;28;20203;-67
2022/09/24 00:45:51;;;;;;;8.93;5.57;;;;;;;;;;5082027;28;20531;-67
2022/09/24 00:48:17;;;;;;;6.47;5.82;;;;;;;;;;5082069;28;20203;-68
2022/09/24 00:50:43;;;;;;;6.90;5.90;;;;;;;;;;5081972;28;20196;-68
2022/09/24 00:53:11;;;;;;;6.57;6.00;;;;;;;;;;5081942;28;20196;-68
2022/09/24 00:55:39;;;;;;;6.43;5.80;;;;;;;;;;5082601;28;20196;-69
2022/09/24 00:58:08;;;;;;;6.28;5.68;;;;;;;;;;5081381;28;20196;-70
2022/09/24 01:00:36;;;;;;;6.68;6.13;;;;;;;;;;5081835;28;20200;-70
2022/09/24 01:03:05;;;;;;;6.90;5.95;;;;;;;;;;5081769;28;20204;-70
2022/09/24 01:05:31;;;;;;;8.20;6.82;;;;;;;;;;5081900;28;20224;-69
2022/09/24 01:07:58;;;;;;;8.32;6.22;;;;;;;;;;5081917;28;20196;-69
2022/09/24 01:10:49;;;;;;;6.45;5.95;;;;;;;;;;5081288;28;20224;-69
2022/09/24 01:13:23;;;;;;;6.50;5.63;;;;;;;;;;5081755;28;20211;-69
2022/09/24 01:15:51;;;;;;;6.20;5.60;;;;;;;;;;5081845;28;20238;-69
2022/09/24 01:18:25;;;;;;;7.75;6.03;;;;;;;;;;5081818;28;20399;-69
2022/09/24 01:20:59;;;;;;;7.53;6.82;;;;;;;;;;5081588;28;20203;-69
2022/09/24 01:23:40;;;;;;;7.00;6.30;;;;;;;;;;5081326;28;20196;-69
2022/09/24 01:26:18;;;;;;;8.57;7.18;;;;;;;;;;5079087;28;20418;-69
2022/09/24 01:28:54;;;;;;;7.05;6.32;;;;;;;;;;5081766;28;20500;-69
2022/09/24 01:31:24;;;;;;;6.78;6.10;;;;;;;;;;5081603;28;20445;-69
2022/09/24 01:33:52;;;;;;;7.13;6.32;;;;;;;;;;5081344;28;20223;-69
2022/09/24 01:36:20;;;;;;;7.30;6.22;;;;;;;;;;5081929;28;20196;-69
2022/09/24 01:38:47;;;;;;;6.88;6.38;;;;;;;;;;5081606;28;20247;-69
2022/09/24 01:41:14;;;;;;;6.80;6.13;;;;;;;;;;5081363;28;20196;-69
2022/09/24 01:43:41;;;;;;;6.22;5.72;;;;;;;;;;5081186;28;20196;-69
2022/09/24 01:46:07;;;;;;;6.95;6.32;;;;;;;;;;5081409;28;20223;-69
2022/09/24 01:48:37;;;;;;;6.75;6.18;;;;;;;;;;5081395;28;20211;-69
2022/09/24 01:51:06;;;;;;;6.70;5.85;;;;;;;;;;5081564;28;20397;-69
2022/09/24 01:53:35;;;;;;;8.07;6.32;;;;;;;;;;5081285;28;20200;-69
2022/09/24 01:56:04;;;;;;;7.10;6.50;;;;;;;;;;5081396;28;20193;-69
2022/09/24 01:58:32;;;;;;;6.85;5.97;;;;;;;;;;5081089;28;20197;-69
2022/09/24 02:01:05;;;;;;;7.30;6.60;;;;;;;;;;5081304;28;20197;-69
2022/09/24 02:03:33;;;;;;;7.75;5.90;;;;;;;;;;5081144;28;20204;-69
2022/09/24 02:06:03;;;;;;;7.20;6.38;;;;;;;;;;5081205;28;20220;-69
2022/09/24 02:08:32;;;;;;;11.05;6.80;;;;;;;;;;5081551;28;20201;-69
2022/09/24 02:11:01;;;;;;;7.15;6.55;;;;;;;;;;5084057;28;20204;-69
2022/09/24 02:13:31;;;;;;;8.85;7.18;;;;;;;;;;5084494;28;20242;-69
2022/09/24 02:15:59;;;;;;;7.10;6.60;;;;;;;;;;5084751;28;20246;-69
2022/09/24 02:18:28;;;;;;;9.38;7.50;;;;;;;;;;5084814;28;20196;-69
2022/09/24 02:20:55;;;;;;;9.68;7.70;;;;;;;;;;5084776;28;20203;-69
2022/09/24 02:23:23;;;;;;;7.75;7.05;;;;;;;;;;5084374;28;20203;-69
2022/09/24 02:25:50;;;;;;;8.27;7.43;;;;;;;;;;5084591;28;20219;-69
2022/09/24 02:28:16;;;;;;;8.43;7.65;;;;;;;;;;5084516;28;20212;-69
2022/09/24 02:30:46;;;;;;;8.38;7.68;;;;;;;;;;5084906;28;20530;-69
2022/09/24 02:35:54;;;;;;;8.40;7.75;;;;;;;;;;5084038;28;20254;-69
2022/09/24 02:38:20;;;;;;;8.30;7.47;;;;;;;;;;5084676;28;20200;-69
2022/09/24 02:40:48;;;;;;;9.02;8.18;;;;;;;;;;5084208;28;20200;-69
2022/09/24 02:43:14;;;;;;;8.60;7.75;;;;;;;;;;5084143;28;20197;-69
2022/09/24 02:45:40;;;;;;;10.07;8.10;;;;;;;;;;5084222;28;20196;-69
2022/09/24 02:48:07;;;;;;;8.40;7.70;;;;;;;;;;5084247;28;20242;-69
2022/09/24 02:50:33;;;;;;;8.82;8.00;;;;;;;;;;5083877;28;20203;-69
2022/09/24 02:52:59;;;;;;;10.90;8.77;;;;;;;;;;5084307;28;20207;-69
2022/09/24 02:55:26;;;;;;;8.68;7.88;;;;;;;;;;5084294;28;20508;-69
2022/09/24 02:57:53;;;;;;;8.02;7.32;;;;;;;;;;5084358;28;20259;-69
2022/09/24 03:00:20;;;;;;;11.35;8.15;;;;;;;;;;5083950;28;20203;-69
2022/09/24 03:02:46;;;;;;;8.63;7.63;;;;;;;;;;5083741;28;20200;-69
2022/09/24 03:05:14;;;;;;;10.15;7.90;;;;;;;;;;5083739;28;20228;-69
2022/09/24 03:07:42;;;;;;;8.80;7.60;;;;;;;;;;5083901;28;20232;-67
2022/09/24 03:10:09;;;;;;;8.82;7.93;;;;;;;;;;5083995;28;20275;-67
2022/09/24 03:12:35;;;;;;;8.80;8.00;;;;;;;;;;5083455;28;20480;-67
2022/09/24 03:15:03;;;;;;;11.00;7.60;;;;;;;;;;5083799;28;20207;-67
2022/09/24 03:17:30;;;;;;;8.20;7.40;;;;;;;;;;5083500;28;20192;-67
2022/09/24 03:19:56;;;;;;;7.80;7.03;;;;;;;;;;5084131;28;20358;-68
2022/09/24 03:22:22;;;;;;;7.82;7.22;;;;;;;;;;5082318;28;20203;-68
2022/09/24 03:24:48;;;;;;;13.60;7.97;;;;;;;;;;5083736;28;20204;-69
2022/09/24 03:27:15;;;;;;;7.43;6.82;;;;;;;;;;5083268;28;20224;-69
2022/09/24 03:32:26;;;;;;;9.15;7.63;;;;;;;;;;5083198;28;20192;-69
2022/09/24 03:34:53;;;;;;;9.15;8.25;;;;;;;;;;5083507;28;20196;-68
2022/09/24 03:37:19;;;;;;;8.85;7.53;;;;;;;;;;5083362;28;20238;-69
2022/09/24 03:39:45;;;;;;;9.57;8.40;;;;;;;;;;5083356;28;20211;-69
2022/09/24 03:42:11;;;;;;;8.07;7.38;;;;;;;;;;5082874;28;20197;-69
2022/09/24 03:44:38;;;;;;;7.75;7.05;;;;;;;;;;5083089;28;20211;-69
2022/09/24 03:47:04;;;;;;;9.05;7.75;;;;;;;;;;5083029;28;20220;-69
2022/09/24 03:49:31;;;;;;;7.78;7.07;;;;;;;;;;5083187;28;20270;-69
2022/09/24 03:51:58;;;;;;;10.43;8.25;;;;;;;;;;5083009;28;20203;-69
2022/09/24 03:54:24;;;;;;;11.80;8.57;;;;;;;;;;5082643;28;20212;-69
2022/09/24 03:56:50;;;;;;;10.48;8.30;;;;;;;;;;5082869;28;20193;-69
2022/09/24 03:59:16;;;;;;;12.27;7.32;;;;;;;;;;5082653;28;20196;-69
2022/09/24 04:01:43;;;;;;;13.68;8.18;;;;;;;;;;5082782;28;20200;-67
2022/09/24 04:04:14;;;;;;;8.98;8.00;;;;;;;;;;5082636;28;20211;-67
2022/09/24 04:06:41;;;;;;;10.55;7.50;;;;;;;;;;5082419;28;20233;-67
2022/09/24 04:09:09;;;;;;;7.75;7.05;;;;;;;;;;5082634;28;20397;-67
2022/09/24 04:11:35;;;;;;;9.10;8.20;;;;;;;;;;5082525;28;20230;-67
2022/09/24 04:14:01;;;;;;;9.77;8.85;;;;;;;;;;5082255;28;20208;-67
2022/09/24 04:16:28;;;;;;;10.02;7.95;;;;;;;;;;5082575;28;20218;-67
2022/09/24 04:18:54;;;;;;;9.00;8.10;;;;;;;;;;5082310;28;20196;-67
2022/09/24 04:21:21;;;;;;;9.23;8.30;;;;;;;;;;5082511;28;20237;-68
2022/09/24 04:23:49;;;;;;;9.30;8.05;;;;;;;;;;5082168;28;20203;-70
2022/09/24 04:26:16;;;;;;;9.38;8.32;;;;;;;;;;5081995;28;20437;-70
2022/09/24 04:28:42;;;;;;;9.55;8.55;;;;;;;;;;5082174;28;20227;-69
2022/09/24 04:31:08;;;;;;;11.15;8.63;;;;;;;;;;5082466;28;20196;-69
2022/09/24 04:33:34;;;;;;;10.55;9.07;;;;;;;;;;5081932;28;20201;-69
2022/09/24 04:36:01;;;;;;;8.90;8.02;;;;;;;;;;5082218;28;20224;-69
2022/09/24 04:38:27;;;;;;;10.50;8.50;;;;;;;;;;5082211;28;20196;-69
2022/09/24 04:40:55;;;;;;;9.73;8.32;;;;;;;;;;5082027;28;20196;-69
2022/09/24 04:43:22;;;;;;;13.45;9.20;;;;;;;;;;5082133;28;20351;-69
2022/09/24 04:45:48;;;;;;;13.32;9.65;;;;;;;;;;5081883;28;20229;-69
2022/09/24 04:48:14;;;;;;;14.82;10.23;;;;;;;;;;5081913;28;20266;-69
2022/09/24 04:50:41;;;;;;;13.05;9.43;;;;;;;;;;5081974;28;20197;-69
2022/09/24 04:53:07;;;;;;;10.75;8.75;;;;;;;;;;5081784;28;20399;-69
2022/09/24 04:55:34;;;;;;;13.45;8.27;;;;;;;;;;5082209;28;20357;-69
2022/09/24 04:58:01;;;;;;;10.88;8.05;;;;;;;;;;5081840;28;20193;-69
2022/09/24 05:00:32;;;;;;;8.30;7.55;;;;;;;;;;5081975;28;20201;-69
2022/09/24 05:02:59;;;;;;;9.30;7.55;;;;;;;;;;5081771;28;20204;-69
2022/09/24 05:05:25;;;;;;;10.20;8.00;;;;;;;;;;5081807;28;20570;-68
2022/09/24 05:07:52;;;;;;;8.25;7.55;;;;;;;;;;5081990;28;20216;-68
2022/09/24 05:10:18;;;;;;;10.63;7.47;;;;;;;;;;5081700;28;20504;-68
2022/09/24 05:12:44;;;;;;;9.02;7.90;;;;;;;;;;5081837;28;20196;-70
2022/09/24 05:15:12;;;;;;;13.48;7.88;;;;;;;;;;5081962;28;20546;-70
2022/09/24 05:17:38;;;;;;;8.85;7.85;;;;;;;;;;5081829;28;20199;-69
2022/09/24 05:20:05;;;;;;;10.70;7.93;;;;;;;;;;5082011;28;20211;-69
2022/09/24 05:22:31;;;;;;;10.00;7.82;;;;;;;;;;5081274;28;20204;-69
2022/09/24 05:24:58;;;;;;;13.93;8.27;;;;;;;;;;5081598;28;20235;-70
2022/09/24 05:27:23;;;;;;;8.23;7.32;;;;;;;;;;5081405;28;20537;-70
2022/09/24 05:29:50;;;;;;;9.10;7.90;;;;;;;;;;5081635;28;20223;-68
2022/09/24 05:32:18;;;;;;;8.82;6.93;;;;;;;;;;5082488;28;20197;-69
2022/09/24 05:34:45;;;;;;;8.48;7.68;;;;;;;;;;5085636;28;20539;-69
2022/09/24 05:37:11;;;;;;;9.27;7.45;;;;;;;;;;5081335;28;20207;-69
2022/09/24 05:39:39;;;;;;;11.82;8.13;;;;;;;;;;5081762;28;20205;-68
2022/09/24 05:42:06;;;;;;;9.32;7.97;;;;;;;;;;5081596;28;20588;-68
2022/09/24 05:44:32;;;;;;;9.10;8.23;;;;;;;;;;5081924;28;20272;-68
2022/09/24 05:46:59;;;;;;;8.05;7.25;;;;;;;;;;5085310;28;20557;-68
2022/09/24 05:49:26;;;;;;;8.85;7.90;;;;;;;;;;5085555;28;20196;-68
2022/09/24 05:51:53;;;;;;;8.95;8.15;;;;;;;;;;5085074;28;20242;-68
2022/09/24 05:54:19;;;;;;;12.18;8.60;;;;;;;;;;5084861;28;20518;-68
2022/09/24 05:56:46;;;;;;;12.65;8.88;;;;;;;;;;5085305;28;20313;-68
2022/09/24 05:59:12;;;;;;;9.50;8.55;;;;;;;;;;5085227;28;20207;-68
2022/09/24 06:01:39;;;;;;;12.35;9.05;;;;;;;;;;5085179;28;20397;-69
2022/09/24 06:04:05;;;;;;;10.07;8.07;;;;;;;;;;5084753;28;20196;-69
2022/09/24 06:06:33;;;;;;;11.45;8.48;;;;;;;;;;5084895;28;20624;-69
2022/09/24 06:09:00;;;;;;;9.45;8.07;;;;;;;;;;5084939;28;20227;-69
2022/09/24 06:11:33;;;;;;;9.68;8.25;;;;;;;;;;5084933;28;20200;-69
2022/09/24 06:14:01;;;;;;;9.45;8.65;;;;;;;;;;5084993;28;20196;-68
2022/09/24 06:16:28;;;;;;;9.10;8.30;;;;;;;;;;5084796;28;20267;-69
2022/09/24 06:18:54;;;;;;;8.75;8.02;;;;;;;;;;5084569;28;20193;-69
2022/09/24 06:21:20;;;;;;;11.25;8.40;;;;;;;;;;5084739;28;20203;-69
2022/09/24 06:23:48;;;;;;;8.43;7.60;;;;;;;;;;5084754;28;20208;-69
2022/09/24 06:26:14;;;;;;;8.63;7.93;;;;;;;;;;5084948;28;20541;-69
2022/09/24 06:28:41;;;;;;;10.00;9.10;;;;;;;;;;5084987;28;20535;-69
2022/09/24 06:31:10;;;;;;;9.27;8.38;;;;;;;;;;5084900;28;20422;-68
2022/09/24 06:33:37;;;;;;;9.73;8.82;;;;;;;;;;5084428;28;20208;-68
2022/09/24 06:36:04;;;;;;;10.38;8.95;;;;;;;;;;5084920;28;20188;-68
2022/09/24 06:38:30;;;;;;;9.20;8.27;;;;;;;;;;5084765;28;20207;-69
2022/09/24 06:41:00;;;;;;;14.40;9.50;;;;;;;;;;5084818;28;20373;-69
2022/09/24 06:43:26;;;;;;;11.43;9.35;;;;;;;;;;5084544;28;20196;-69
2022/09/24 06:45:54;;;;;;;9.48;8.50;;;;;;;;;;5084455;28;20223;-69
2022/09/24 06:48:21;;;;;;;11.55;8.52;;;;;;;;;;5084422;28;20220;-69
2022/09/24 06:50:47;;;;;;;9.27;8.18;;;;;;;;;;5084179;28;20200;-69
2022/09/24 06:53:14;;;;;;;10.68;8.23;;;;;;;;;;5084213;28;20208;-69
2022/09/24 06:55:41;;;;;;;10.48;8.48;;;;;;;;;;5083876;28;20422;-69
2022/09/24 06:58:10;;;;;;;9.90;7.80;;;;;;;;;;5083667;28;20392;-69
2022/09/24 07:00:37;;;;;;;10.77;8.30;;;;;;;;;;5084298;28;20196;-69
2022/09/24 07:03:04;;;;;;;12.38;8.35;;;;;;;;;;5084261;28;20241;-69
2022/09/24 07:05:30;;;;;;;8.43;7.72;;;;;;;;;;5084274;28;20638;-69
2022/09/24 07:07:56;;;;;;;9.88;8.30;;;;;;;;;;5084316;28;20443;-69
2022/09/24 07:10:24;;;;;;;9.25;8.45;;;;;;;;;;5084200;28;20196;-69
2022/09/24 07:12:50;;;;;;;9.82;8.82;;;;;;;;;;5083766;28;20197;-69
2022/09/24 07:15:18;;;;;;;10.13;9.13;;;;;;;;;;5083896;28;20212;-69
2022/09/24 07:17:44;;;;;;;9.02;8.13;;;;;;;;;;5083829;28;20199;-69
2022/09/24 07:20:10;;;;;;;11.10;8.07;;;;;;;;;;5083990;28;20510;-69
2022/09/24 07:22:38;;;;;;;9.95;8.73;;;;;;;;;;5083503;28;20204;-69
2022/09/24 07:25:05;;;;;;;11.82;8.52;;;;;;;;;;5083817;28;20203;-69
2022/09/24 07:27:32;;;;;;;9.60;8.70;;;;;;;;;;5083783;28;20255;-69
2022/09/24 07:29:58;;;;;;;10.30;8.30;;;;;;;;;;5084173;28;20212;-69
2022/09/24 07:32:26;;;;;;;8.95;8.15;;;;;;;;;;5083412;28;20203;-69
2022/09/24 07:34:54;;;;;;;8.95;8.23;;;;;;;;;;5083681;28;20406;-69
2022/09/24 07:37:20;;;;;;;8.75;7.95;;;;;;;;;;5083521;28;20231;-69
2022/09/24 07:39:46;;;;;;;9.07;8.20;;;;;;;;;;5083497;28;20501;-69
2022/09/24 07:42:12;;;;;;;12.00;8.20;;;;;;;;;;5083216;28;20538;-69
2022/09/24 07:44:38;;;;;;;10.95;8.30;;;;;;;;;;5083621;28;20431;-69
2022/09/24 07:47:05;;;;;;;9.95;8.73;;;;;;;;;;5083573;28;20219;-69
2022/09/24 07:49:33;;;;;;;8.52;7.50;;;;;;;;;;5083437;28;20220;-69
2022/09/24 07:51:59;;;;;;;9.25;8.30;;;;;;;;;;5083376;28;20448;-69
2022/09/24 07:54:25;;;;;;;10.90;8.30;;;;;;;;;;5083052;28;20196;-69
2022/09/24 07:56:51;;;;;;;11.38;8.30;;;;;;;;;;5082901;28;20224;-69
2022/09/24 07:59:19;;;;;;;10.63;8.30;;;;;;;;;;5083115;28;20222;-69
2022/09/24 08:01:45;;;;;;;9.65;8.15;;;;;;;;;;5083270;28;20196;-69
2022/09/24 08:04:11;;;;;;;8.85;8.00;;;;;;;;;;5082886;28;20405;-69
2022/09/24 08:06:39;;;;;;;10.55;8.65;;;;;;;;;;5083020;28;20216;-69
2022/09/24 08:09:05;;;;;;;9.55;8.50;;;;;;;;;;5082417;28;20524;-69
2022/09/24 08:11:32;;;;;;;9.57;7.93;;;;;;;;;;5082870;28;20196;-69
2022/09/24 08:13:59;;;;;;;10.38;7.45;;;;;;;;;;5082792;28;20226;-70
2022/09/24 08:16:25;;;;;;;9.52;7.90;;;;;;;;;;5082923;28;20196;-69
2022/09/24 08:18:52;;;;;;;9.32;8.00;;;;;;;;;;5082630;28;20200;-69
2022/09/24 08:21:18;;;;;;;14.40;9.90;;;;;;;;;;5082677;28;20278;-69
2022/09/24 08:23:46;;;;;;;10.40;9.45;;;;;;;;;;5082269;28;20254;-69
2022/09/24 08:26:13;;;;;;;9.45;8.55;;;;;;;;;;5082623;28;20408;-69
2022/09/24 08:28:40;;;;;;;8.77;7.85;;;;;;;;;;5082628;28;20322;-69
2022/09/24 08:31:08;;;;;;;8.85;7.95;;;;;;;;;;5082515;28;20212;-69
2022/09/24 08:33:35;;;;;;;9.18;8.32;;;;;;;;;;5082310;28;20196;-69
2022/09/24 08:36:02;;;;;;;9.00;8.07;;;;;;;;;;5082440;28;20196;-69
2022/09/24 08:38:28;;;;;;;9.38;8.48;;;;;;;;;;5082231;28;20197;-69
2022/09/24 08:40:59;;;;;;;8.77;7.88;;;;;;;;;;5082446;28;20200;-69
2022/09/24 08:43:32;;;;;;;10.05;8.38;;;;;;;;;;5082084;28;20197;-69
2022/09/24 08:48:46;;;;;;;9.05;8.25;;;;;;;;;;5082135;28;20535;-69
2022/09/24 08:51:16;;;;;;;10.95;7.55;;;;;;;;;;5082405;28;20552;-69
2022/09/24 08:53:47;;;;;;;8.82;7.90;;;;;;;;;;5081939;28;20224;-70
2022/09/24 08:56:18;;;;;;;9.00;7.85;;;;;;;;;;5082313;28;20534;-69
2022/09/24 08:58:48;;;;;;;9.32;7.95;;;;;;;;;;5082402;28;20369;-69
2022/09/24 09:01:20;;;;;;;10.27;8.07;;;;;;;;;;5082252;28;20209;-70
2022/09/24 09:03:49;;;;;;;9.85;7.78;;;;;;;;;;5082154;28;20200;-69
2022/09/24 09:06:23;;;;;;;8.68;7.90;;;;;;;;;;5082164;28;20393;-69
2022/09/24 09:08:54;;;;;;;9.45;7.97;;;;;;;;;;5082193;28;20223;-69
2022/09/24 09:11:24;;;;;;;9.07;8.20;;;;;;;;;;5082271;28;20388;-69
2022/09/24 09:13:53;;;;;;;10.70;7.68;;;;;;;;;;5081713;28;20196;-69
2022/09/24 09:16:22;;;;;;;12.02;7.80;;;;;;;;;;5082295;28;20220;-69
2022/09/24 09:18:50;;;;;;;8.18;7.30;;;;;;;;;;5082198;28;20208;-69
2022/09/24 09:21:17;;;;;;;8.20;7.45;;;;;;;;;;5085590;28;20204;-69
2022/09/24 09:23:47;;;;;;;9.13;8.00;;;;;;;;;;5085777;28;20203;-69
2022/09/24 09:26:13;;;;;;;12.05;7.25;;;;;;;;;;5088357;28;20210;-69
2022/09/24 09:28:41;;;;;;;12.25;9.90;;;;;;;;;;5088257;28;20478;-69
2022/09/24 09:31:12;;;;;;;9.38;8.38;;;;;;;;;;5086132;28;20203;-69
2022/09/24 09:33:46;;;;;;;9.63;7.75;;;;;;;;;;5085794;28;20204;-68
2022/09/24 09:36:29;;;;;;;13.23;8.43;;;;;;;;;;5085836;28;20197;-68
2022/09/24 09:39:00;;;;;;;13.02;10.02;;;;;;;;;;5085676;28;20192;-70
2022/09/24 09:41:30;;;;;;;7.47;6.78;;;;;;;;;;5085865;28;20204;-68
2022/09/24 09:44:01;;;;;;;12.20;6.70;;;;;;;;;;5085624;28;20438;-68
2022/09/24 09:46:29;;;;;;;11.95;8.05;;;;;;;;;;5085738;28;20204;-69
2022/09/24 09:48:58;;;;;;;14.30;8.93;;;;;;;;;;5085541;28;20226;-70
2022/09/24 09:51:25;;;;;;;12.15;8.93;;;;;;;;;;5085463;28;20196;-68
2022/09/24 09:53:55;;;;;;;10.05;8.55;;;;;;;;;;5085216;28;20207;-68
2022/09/24 09:56:26;;;;;;;7.72;6.63;;;;;;;;;;5085619;28;20263;-68
2022/09/24 09:59:01;;;;;;;8.15;7.18;;;;;;;;;;5085638;28;20200;-70
2022/09/24 10:01:32;;;;;;;8.35;6.70;;;;;;;;;;5085431;28;20196;-68
2022/09/24 10:04:01;;;;;;;15.88;11.43;;;;;;;;;;5085042;28;20242;-70
2022/09/24 10:06:30;;;;;;;7.90;7.13;;;;;;;;;;5085420;28;20416;-70
2022/09/24 10:09:06;;;;;;;6.30;5.70;;;;;;;;;;5085309;28;20582;-70
2022/09/24 10:11:32;;;;;;;8.20;7.43;;;;;;;;;;5085334;28;20374;-70
2022/09/24 10:14:02;;;;;;;7.53;6.82;;;;;;;;;;5085429;28;20196;-70
2022/09/24 10:16:29;;;;;;;6.80;6.15;;;;;;;;;;5084915;28;20369;-70
2022/09/24 10:18:56;;;;;;;7.70;5.47;;;;;;;;;;5085260;28;20192;-70
2022/09/24 10:21:26;;;;;;;6.45;5.93;;;;;;;;;;5085021;28;20204;-70
2022/09/24 10:23:58;;;;;;;6.68;6.05;;;;;;;;;;5084865;28;20196;-70
2022/09/24 10:26:33;;;;;;;6.07;5.50;;;;;;;;;;5084779;28;20378;-70
2022/09/24 10:31:44;;;;;;;8.15;7.30;;;;;;;;;;5084574;28;20208;-70
2022/09/24 10:34:21;;;;;;;10.40;7.95;;;;;;;;;;5084624;28;20234;-70
2022/09/24 10:36:50;;;;;;;8.38;7.43;;;;;;;;;;5084846;28;20231;-70
2022/09/24 10:39:16;;;;;;;6.47;5.82;;;;;;;;;;5084513;28;20370;-70
2022/09/24 10:41:46;;;;;;;5.80;5.18;;;;;;;;;;5084829;28;20551;-70
2022/09/24 10:44:12;;;;;;;7.78;4.88;;;;;;;;;;5084498;28;20385;-70
2022/09/24 10:46:53;;;;;;;5.28;4.78;;;;;;;;;;5084567;28;20200;-70
2022/09/24 10:49:30;;;;;;;6.28;4.43;;;;;;;;;;5081986;28;20224;-70
2022/09/24 10:52:01;;;;;;;4.25;3.80;;;;;;;;;;5084481;28;20279;-70
2022/09/24 10:54:35;;;;;;;3.47;2.85;;;;;;;;;;5084317;28;20200;-70
2022/09/24 10:57:08;;;;;;;3.10;2.75;;;;;;;;;;5084497;28;20203;-70
2022/09/24 10:59:45;;;;;;;2.42;2.30;;;;;;;;;;5084477;28;20192;-70
2022/09/24 11:02:23;;;;;;;2.75;2.55;;;;;;;;;;5084074;28;20275;-70
2022/09/24 11:04:54;;;;;;;2.67;2.47;;;;;;;;;;5084413;28;20456;-70
2022/09/24 11:07:29;;;;;;;3.63;2.60;;;;;;;;;;5084400;28;20197;-70
2022/09/24 11:10:00;;;;;;;2.28;2.17;;;;;;;;;;5084285;28;20219;-70
2022/09/24 11:12:30;;;;;;;2.75;2.40;;;;;;;;;;5083867;28;20200;-70
2022/09/24 11:15:03;;;;;;;2.80;2.70;;;;;;;;;;5084266;28;20211;-70
2022/09/24 11:17:33;;;;;;;2.97;2.78;;;;;;;;;;5084345;28;20196;-70
2022/09/24 11:20:09;;;;;;;2.50;2.40;;;;;;;;;;5084129;28;20192;-70
2022/09/24 11:22:41;;;;;;;2.65;2.55;;;;;;;;;;5083791;28;20559;-70
2022/09/24 11:25:14;;;;;;;2.45;2.30;;;;;;;;;;5083945;28;20203;-70
2022/09/24 11:27:55;;;;;;;3.03;2.83;;;;;;;;;;5083711;28;20288;-70
2022/09/24 11:30:23;;;;;;;2.53;2.40;;;;;;;;;;5083663;28;20232;-70
2022/09/24 11:33:08;;;;;;;2.97;2.72;;;;;;;;;;5083640;28;20200;-70
2022/09/24 11:35:49;;;;;;;2.85;2.65;;;;;;;;;;5083537;28;20496;-70
2022/09/24 11:38:22;;;;;;;3.10;2.90;;;;;;;;;;5081048;28;20196;-70
2022/09/24 11:40:56;;;;;;;2.88;2.72;;;;;;;;;;5083730;28;20205;-70
2022/09/24 11:43:43;;;;;;;2.75;2.65;;;;;;;;;;5082511;28;20503;-70
2022/09/24 11:46:22;;;;;;;2.33;2.28;;;;;;;;;;5078342;28;20207;-70
2022/09/24 11:49:00;;;;;;;2.40;2.20;;;;;;;;;;5083610;28;20208;-70
2022/09/24 11:51:40;;;;;;;3.05;2.85;;;;;;;;;;5083459;28;20207;-69
2022/09/24 11:54:12;;;;;;;3.00;2.80;;;;;;;;;;5083183;28;20202;-69
2022/09/24 11:56:40;;;;;;;3.72;3.30;;;;;;;;;;5083513;28;20419;-69
2022/09/24 11:59:13;;;;;;;2.80;2.70;;;;;;;;;;5083371;28;20376;-69
2022/09/24 12:01:46;;;;;;;2.90;2.70;;;;;;;;;;5083288;28;20499;-69
2022/09/24 12:04:15;;;;;;;2.63;2.42;;;;;;;;;;5082839;28;20224;-69
2022/09/24 12:06:46;;;;;;;3.92;2.75;;;;;;;;;;5082786;28;20216;-70
2022/09/24 12:09:17;;;;;;;2.80;2.58;;;;;;;;;;5083098;28;20223;-70
2022/09/24 12:11:46;;;;;;;3.55;3.20;;;;;;;;;;5083041;28;20203;-69
2022/09/24 12:14:14;;;;;;;3.47;2.50;;;;;;;;;;5082761;28;20197;-70
2022/09/24 12:16:43;;;;;;;3.38;3.15;;;;;;;;;;5083012;28;20196;-69
2022/09/24 12:19:12;;;;;;;4.57;4.18;;;;;;;;;;5082804;28;20227;-69
2022/09/24 12:21:39;;;;;;;3.75;3.47;;;;;;;;;;5082964;28;20219;-69
2022/09/24 12:24:09;;;;;;;4.30;3.90;;;;;;;;;;5082579;28;20450;-70
2022/09/24 12:26:38;;;;;;;7.68;6.28;;;;;;;;;;5082825;28;20211;-69
2022/09/24 12:34:49;;;;;;;3.58;3.33;;;;;;;;;;5082774;28;20199;-70
2022/09/24 12:37:17;;;;;;;3.22;2.97;;;;;;;;;;5082669;28;20552;-69
2022/09/24 12:39:48;;;;;;;3.35;3.08;;;;;;;;;;5082496;28;20357;-68
2022/09/24 12:42:17;;;;;;;3.17;2.92;;;;;;;;;;5082735;28;20248;-70
2022/09/24 12:44:45;;;;;;;3.05;2.95;;;;;;;;;;5082397;28;20197;-69
2022/09/24 12:47:15;;;;;;;2.85;2.75;;;;;;;;;;5082215;28;20219;-69
2022/09/24 12:49:42;;;;;;;3.70;3.40;;;;;;;;;;5082367;28;20287;-69
2022/09/24 12:52:16;;;;;;;3.58;3.28;;;;;;;;;;5082515;28;20196;-68
2022/09/24 12:54:43;;;;;;;3.33;3.13;;;;;;;;;;5082240;28;20203;-69
2022/09/24 12:57:12;;;;;;;6.70;3.45;;;;;;;;;;5082470;28;20386;-69
2022/09/24 12:59:50;;;;;;;3.42;3.22;;;;;;;;;;5082385;28;20200;-70
2022/09/24 13:02:18;;;;;;;3.00;2.90;;;;;;;;;;5082076;28;20200;-70
2022/09/24 13:04:49;;;;;;;3.63;3.30;;;;;;;;;;5082190;28;20548;-70
2022/09/24 13:07:33;;;;;;;2.90;2.80;;;;;;;;;;5082155;28;20200;-70
2022/09/24 13:10:11;;;;;;;3.47;3.20;;;;;;;;;;5082269;28;20242;-69
2022/09/24 13:12:37;;;;;;;3.05;2.85;;;;;;;;;;5081986;28;20230;-69
2022/09/24 13:15:08;;;;;;;3.60;3.33;;;;;;;;;;5082289;28;20219;-70
2022/09/24 13:17:37;;;;;;;4.78;3.28;;;;;;;;;;5082006;28;20208;-70
2022/09/24 13:20:05;;;;;;;3.55;3.35;;;;;;;;;;5082261;28;20620;-69
2022/09/24 13:22:33;;;;;;;4.22;3.80;;;;;;;;;;5081993;28;20522;-70
2022/09/24 13:25:19;;;;;;;3.35;3.25;;;;;;;;;;5081944;28;20243;-70
2022/09/24 13:27:56;;;;;;;4.70;3.92;;;;;;;;;;5081902;28;20287;-69
2022/09/24 13:30:30;;;;;;;3.92;3.63;;;;;;;;;;5081976;28;20379;-69
2022/09/24 13:32:59;;;;;;;3.97;3.67;;;;;;;;;;5081916;28;20202;-69
2022/09/24 13:35:27;;;;;;;4.60;4.20;;;;;;;;;;5081844;28;20196;-70
2022/09/24 13:37:55;;;;;;;3.90;3.60;;;;;;;;;;5082130;28;20266;-65
2022/09/24 13:40:25;;;;;;;3.47;3.28;;;;;;;;;;5082105;28;20522;-60
2022/09/24 13:42:54;;;;;;;3.80;3.50;;;;;;;;;;5081561;28;20211;-60
2022/09/24 13:45:21;;;;;;;3.08;2.88;;;;;;;;;;5081857;28;20196;-60
2022/09/24 13:47:50;;;;;;;3.88;3.60;;;;;;;;;;5082026;28;20197;-60
2022/09/24 13:50:19;;;;;;;4.03;3.63;;;;;;;;;;5081772;28;20218;-60
2022/09/24 13:52:48;;;;;;;3.95;3.58;;;;;;;;;;5081438;28;20203;-60
2022/09/24 13:55:17;;;;;;;5.57;3.47;;;;;;;;;;5081552;28;20263;-60
2022/09/24 13:57:43;;;;;;;4.93;4.53;;;;;;;;;;5081866;28;20427;-60
2022/09/24 14:00:15;;;;;;;5.13;4.35;;;;;;;;;;5081779;28;20399;-61
2022/09/24 14:02:43;;;;;;;4.40;4.13;;;;;;;;;;5081487;28;20197;-62
2022/09/24 14:05:15;;;;;;;4.38;4.13;;;;;;;;;;5081568;28;20239;-61
2022/09/24 14:07:44;;;;;;;4.97;4.57;;;;;;;;;;5085243;28;20200;-62
2022/09/24 14:10:13;;;;;;;6.32;5.30;;;;;;;;;;5085084;28;20244;-62
2022/09/24 14:12:39;;;;;;;5.47;5.03;;;;;;;;;;5085117;28;20203;-62
2022/09/24 14:15:13;;;;;;;5.20;4.80;;;;;;;;;;5085174;28;20202;-62
2022/09/24 14:17:39;;;;;;;5.10;4.90;;;;;;;;;;5085191;28;20200;-62
2022/09/24 14:20:05;;;;;;;5.28;4.78;;;;;;;;;;5084667;28;20196;-62
2022/09/24 14:22:36;;;;;;;5.78;5.20;;;;;;;;;;5073073;28;20200;-62
2022/09/24 14:25:03;;;;;;;5.80;5.30;;;;;;;;;;5065186;28;20204;-62
2022/09/24 14:27:30;;;;;;;4.88;4.60;;;;;;;;;;5064833;28;20208;-62
2022/09/24 14:29:58;;;;;;;5.50;5.13;;;;;;;;;;5064860;28;20217;-62
2022/09/24 14:32:27;;;;;;;5.82;5.35;;;;;;;;;;5064403;28;20200;-62
2022/09/24 14:34:54;;;;;;;4.90;4.60;;;;;;;;;;5064717;28;20205;-62
2022/09/24 14:37:22;;;;;;;6.30;5.53;;;;;;;;;;5064944;28;20273;-63
2022/09/24 14:39:56;;;;;;;10.13;6.20;;;;;;;;;;5064830;28;20193;-63
2022/09/24 14:42:24;;;;;;;5.80;5.20;;;;;;;;;;5064461;28;20223;-61
2022/09/24 14:44:51;;;;;;;5.80;5.30;;;;;;;;;;5064683;28;20201;-61
2022/09/24 14:47:25;;;;;;;5.65;5.15;;;;;;;;;;5064472;28;20201;-63
2022/09/24 14:49:52;;;;;;;6.13;5.53;;;;;;;;;;5067489;28;20419;-63
2022/09/24 14:52:25;;;;;;;5.85;5.35;;;;;;;;;;5072799;28;20422;-62
2022/09/24 14:55:01;;;;;;;7.18;5.57;;;;;;;;;;5078519;28;20528;-60
2022/09/24 14:57:27;;;;;;;6.20;5.60;;;;;;;;;;5078638;28;20196;-62
2022/09/24 14:59:54;;;;;;;6.28;5.68;;;;;;;;;;5078527;28;20231;-60
2022/09/24 15:02:21;;;;;;;5.57;5.05;;;;;;;;;;5078267;28;20483;-62
2022/09/24 15:04:49;;;;;;;4.72;4.32;;;;;;;;;;5078244;28;20232;-62
2022/09/24 15:07:17;;;;;;;4.90;4.60;;;;;;;;;;5078055;28;20204;-62
2022/09/24 15:09:45;;;;;;;4.72;4.43;;;;;;;;;;5077787;28;20242;-60